sensor_id;sensor_type;location;lat;lon;timestamp;P1;durP1;ratioP1;P2;durP2;ratioP2
22164;SDS011;11248;52.512;13.520;2022-10-22T00:01:13;8.02;;;6.68;;
22164;SDS011;11248;52.512;13.520;2022-10-22T00:03:39;10.95;;;7.97;;
22164;SDS011;11248;52.512;13.520;2022-10-22T00:06:05;10.15;;;6.97;;
22164;SDS011;11248;52.512;13.520;2022-10-22T00:08:31;10.50;;;7.90;;
22164;SDS011;11248;52.512;13.520;2022-10-22T00:10:57;9.82;;;6.85;;
22164;SDS011;11248;52.512;13.520;2022-10-22T00:13:23;8.13;;;7.03;;
22164;SDS011;11248;52.512;13.520;2022-10-22T00:15:49;10.27;;;6.90;;
22164;SDS011;11248;52.512;13.520;2022-10-22T00:18:15;9.27;;;6.95;;
22164;SDS011;11248;52.512;13.520;2022-10-22T00:20:41;10.02;;;7.03;;
22164;SDS011;11248;52.512;13.520;2022-10-22T00:23:07;8.63;;;7.07;;
22164;SDS011;11248;52.512;13.520;2022-10-22T00:25:34;9.20;;;6.65;;
22164;SDS011;11248;52.512;13.520;2022-10-22T00:28:00;10.45;;;6.07;;
22164;SDS011;11248;52.512;13.520;2022-10-22T00:30:26;10.40;;;6.80;;
22164;SDS011;11248;52.512;13.520;2022-10-22T00:32:52;9.73;;;6.95;;
22164;SDS011;11248;52.512;13.520;2022-10-22T00:35:18;8.73;;;6.82;;
22164;SDS011;11248;52.512;13.520;2022-10-22T00:37:44;7.93;;;6.35;;
22164;SDS011;11248;52.512;13.520;2022-10-22T00:40:10;8.73;;;6.60;;
22164;SDS011;11248;52.512;13.520;2022-10-22T00:42:37;7.82;;;6.43;;
22164;SDS011;11248;52.512;13.520;2022-10-22T00:50:01;8.70;;;6.60;;
22164;SDS011;11248;52.512;13.520;2022-10-22T00:52:28;9.18;;;6.45;;
22164;SDS011;11248;52.512;13.520;2022-10-22T00:54:54;9.05;;;7.05;;
22164;SDS011;11248;52.512;13.520;2022-10-22T00:57:20;10.30;;;8.00;;
22164;SDS011;11248;52.512;13.520;2022-10-22T00:59:47;10.02;;;7.25;;
22164;SDS011;11248;52.512;13.520;2022-10-22T01:02:13;11.30;;;7.30;;
22164;SDS011;11248;52.512;13.520;2022-10-22T01:04:39;10.18;;;7.65;;
22164;SDS011;11248;52.512;13.520;2022-10-22T01:07:05;9.35;;;7.47;;
22164;SDS011;11248;52.512;13.520;2022-10-22T01:09:41;11.60;;;8.90;;
22164;SDS011;11248;52.512;13.520;2022-10-22T01:14:46;9.48;;;8.00;;
22164;SDS011;11248;52.512;13.520;2022-10-22T01:22:31;9.77;;;7.57;;
22164;SDS011;11248;52.512;13.520;2022-10-22T01:25:00;10.13;;;7.70;;
22164;SDS011;11248;52.512;13.520;2022-10-22T01:27:35;9.73;;;7.43;;
22164;SDS011;11248;52.512;13.520;2022-10-22T01:30:08;10.00;;;7.20;;
22164;SDS011;11248;52.512;13.520;2022-10-22T01:32:36;8.60;;;6.95;;
22164;SDS011;11248;52.512;13.520;2022-10-22T01:35:05;8.93;;;7.50;;
22164;SDS011;11248;52.512;13.520;2022-10-22T01:37:33;8.45;;;6.75;;
22164;SDS011;11248;52.512;13.520;2022-10-22T01:40:01;8.13;;;6.78;;
22164;SDS011;11248;52.512;13.520;2022-10-22T01:42:27;10.60;;;8.15;;
22164;SDS011;11248;52.512;13.520;2022-10-22T01:44:53;9.40;;;6.85;;
22164;SDS011;11248;52.512;13.520;2022-10-22T01:49:57;9.85;;;7.25;;
22164;SDS011;11248;52.512;13.520;2022-10-22T01:52:34;8.82;;;7.47;;
22164;SDS011;11248;52.512;13.520;2022-10-22T01:57:47;9.75;;;7.43;;
22164;SDS011;11248;52.512;13.520;2022-10-22T02:00:16;9.77;;;7.45;;
22164;SDS011;11248;52.512;13.520;2022-10-22T02:02:57;9.65;;;7.60;;
22164;SDS011;11248;52.512;13.520;2022-10-22T02:05:25;8.48;;;7.00;;
22164;SDS011;11248;52.512;13.520;2022-10-22T02:07:54;10.95;;;7.40;;
22164;SDS011;11248;52.512;13.520;2022-10-22T02:10:20;10.48;;;8.00;;
22164;SDS011;11248;52.512;13.520;2022-10-22T02:12:48;10.18;;;8.15;;
22164;SDS011;11248;52.512;13.520;2022-10-22T02:15:15;11.10;;;7.80;;
22164;SDS011;11248;52.512;13.520;2022-10-22T02:17:42;9.90;;;7.43;;
22164;SDS011;11248;52.512;13.520;2022-10-22T02:20:20;8.90;;;6.65;;
22164;SDS011;11248;52.512;13.520;2022-10-22T02:22:47;11.40;;;7.72;;
22164;SDS011;11248;52.512;13.520;2022-10-22T02:25:14;9.95;;;7.95;;
22164;SDS011;11248;52.512;13.520;2022-10-22T02:27:42;10.52;;;7.88;;
22164;SDS011;11248;52.512;13.520;2022-10-22T02:30:10;9.05;;;7.40;;
22164;SDS011;11248;52.512;13.520;2022-10-22T02:37:47;7.20;;;5.95;;
22164;SDS011;11248;52.512;13.520;2022-10-22T02:40:13;8.88;;;6.68;;
22164;SDS011;11248;52.512;13.520;2022-10-22T02:42:40;8.35;;;6.57;;
22164;SDS011;11248;52.512;13.520;2022-10-22T02:45:06;7.47;;;6.45;;
22164;SDS011;11248;52.512;13.520;2022-10-22T02:47:32;11.50;;;7.25;;
22164;SDS011;11248;52.512;13.520;2022-10-22T02:49:58;8.50;;;6.90;;
22164;SDS011;11248;52.512;13.520;2022-10-22T02:52:24;11.02;;;7.20;;
22164;SDS011;11248;52.512;13.520;2022-10-22T02:54:50;8.55;;;7.10;;
22164;SDS011;11248;52.512;13.520;2022-10-22T02:57:16;9.88;;;6.53;;
22164;SDS011;11248;52.512;13.520;2022-10-22T02:59:42;13.15;;;8.35;;
22164;SDS011;11248;52.512;13.520;2022-10-22T03:02:08;10.38;;;7.95;;
22164;SDS011;11248;52.512;13.520;2022-10-22T03:04:34;14.75;;;7.78;;
22164;SDS011;11248;52.512;13.520;2022-10-22T03:07:00;8.93;;;7.40;;
22164;SDS011;11248;52.512;13.520;2022-10-22T03:09:25;8.75;;;6.90;;
22164;SDS011;11248;52.512;13.520;2022-10-22T03:11:51;10.40;;;7.28;;
22164;SDS011;11248;52.512;13.520;2022-10-22T03:14:17;8.40;;;6.88;;
22164;SDS011;11248;52.512;13.520;2022-10-22T03:16:43;10.18;;;7.18;;
22164;SDS011;11248;52.512;13.520;2022-10-22T03:19:09;8.63;;;6.68;;
22164;SDS011;11248;52.512;13.520;2022-10-22T03:21:47;7.88;;;6.68;;
22164;SDS011;11248;52.512;13.520;2022-10-22T03:24:15;8.65;;;6.85;;
22164;SDS011;11248;52.512;13.520;2022-10-22T03:26:42;7.25;;;6.40;;
22164;SDS011;11248;52.512;13.520;2022-10-22T03:29:09;6.90;;;5.68;;
22164;SDS011;11248;52.512;13.520;2022-10-22T03:31:36;8.55;;;6.95;;
22164;SDS011;11248;52.512;13.520;2022-10-22T03:34:01;8.15;;;6.22;;
22164;SDS011;11248;52.512;13.520;2022-10-22T03:36:27;9.63;;;7.03;;
22164;SDS011;11248;52.512;13.520;2022-10-22T03:38:53;11.93;;;8.25;;
22164;SDS011;11248;52.512;13.520;2022-10-22T03:41:19;11.05;;;7.38;;
22164;SDS011;11248;52.512;13.520;2022-10-22T03:43:45;9.20;;;6.43;;
22164;SDS011;11248;52.512;13.520;2022-10-22T03:46:15;10.15;;;7.60;;
22164;SDS011;11248;52.512;13.520;2022-10-22T03:48:41;9.90;;;7.57;;
22164;SDS011;11248;52.512;13.520;2022-10-22T03:51:07;8.35;;;6.45;;
22164;SDS011;11248;52.512;13.520;2022-10-22T03:53:33;9.38;;;7.72;;
22164;SDS011;11248;52.512;13.520;2022-10-22T03:55:59;9.90;;;7.15;;
22164;SDS011;11248;52.512;13.520;2022-10-22T03:58:25;10.88;;;6.95;;
22164;SDS011;11248;52.512;13.520;2022-10-22T04:00:51;9.63;;;6.93;;
22164;SDS011;11248;52.512;13.520;2022-10-22T04:03:17;7.72;;;6.25;;
22164;SDS011;11248;52.512;13.520;2022-10-22T04:05:43;7.93;;;6.28;;
22164;SDS011;11248;52.512;13.520;2022-10-22T04:08:09;7.10;;;6.25;;
22164;SDS011;11248;52.512;13.520;2022-10-22T04:10:34;8.15;;;6.07;;
22164;SDS011;11248;52.512;13.520;2022-10-22T04:13:00;7.28;;;6.22;;
22164;SDS011;11248;52.512;13.520;2022-10-22T04:15:26;9.27;;;7.05;;
22164;SDS011;11248;52.512;13.520;2022-10-22T04:17:53;8.57;;;6.60;;
22164;SDS011;11248;52.512;13.520;2022-10-22T04:20:19;9.52;;;7.03;;
22164;SDS011;11248;52.512;13.520;2022-10-22T04:22:45;11.07;;;7.13;;
22164;SDS011;11248;52.512;13.520;2022-10-22T04:25:11;9.00;;;6.80;;
22164;SDS011;11248;52.512;13.520;2022-10-22T04:27:36;8.98;;;7.40;;
22164;SDS011;11248;52.512;13.520;2022-10-22T04:30:03;10.00;;;7.82;;
22164;SDS011;11248;52.512;13.520;2022-10-22T04:32:30;11.00;;;9.18;;
22164;SDS011;11248;52.512;13.520;2022-10-22T04:34:56;11.07;;;7.85;;
22164;SDS011;11248;52.512;13.520;2022-10-22T04:37:22;11.70;;;8.25;;
22164;SDS011;11248;52.512;13.520;2022-10-22T04:39:48;13.88;;;9.57;;
22164;SDS011;11248;52.512;13.520;2022-10-22T04:42:14;10.75;;;7.88;;
22164;SDS011;11248;52.512;13.520;2022-10-22T04:44:39;8.73;;;6.65;;
22164;SDS011;11248;52.512;13.520;2022-10-22T04:47:05;8.50;;;6.95;;
22164;SDS011;11248;52.512;13.520;2022-10-22T04:49:31;10.00;;;7.93;;
22164;SDS011;11248;52.512;13.520;2022-10-22T04:51:57;11.45;;;8.15;;
22164;SDS011;11248;52.512;13.520;2022-10-22T04:54:23;10.60;;;7.90;;
22164;SDS011;11248;52.512;13.520;2022-10-22T04:56:49;9.38;;;7.53;;
22164;SDS011;11248;52.512;13.520;2022-10-22T04:59:15;11.65;;;8.38;;
22164;SDS011;11248;52.512;13.520;2022-10-22T05:01:42;10.07;;;7.35;;
22164;SDS011;11248;52.512;13.520;2022-10-22T05:04:09;10.63;;;7.40;;
22164;SDS011;11248;52.512;13.520;2022-10-22T05:06:36;9.52;;;7.80;;
22164;SDS011;11248;52.512;13.520;2022-10-22T05:09:06;9.85;;;7.45;;
22164;SDS011;11248;52.512;13.520;2022-10-22T05:11:34;9.23;;;6.97;;
22164;SDS011;11248;52.512;13.520;2022-10-22T05:14:01;8.55;;;6.78;;
22164;SDS011;11248;52.512;13.520;2022-10-22T05:16:28;9.95;;;7.00;;
22164;SDS011;11248;52.512;13.520;2022-10-22T05:18:54;9.60;;;7.68;;
22164;SDS011;11248;52.512;13.520;2022-10-22T05:21:22;9.82;;;7.22;;
22164;SDS011;11248;52.512;13.520;2022-10-22T05:23:48;12.13;;;7.90;;
22164;SDS011;11248;52.512;13.520;2022-10-22T05:26:15;11.25;;;8.60;;
22164;SDS011;11248;52.512;13.520;2022-10-22T05:28:41;13.80;;;9.55;;
22164;SDS011;11248;52.512;13.520;2022-10-22T05:31:09;11.52;;;7.50;;
22164;SDS011;11248;52.512;13.520;2022-10-22T05:33:36;10.43;;;7.82;;
22164;SDS011;11248;52.512;13.520;2022-10-22T05:36:03;11.77;;;7.90;;
22164;SDS011;11248;52.512;13.520;2022-10-22T05:38:30;14.23;;;8.68;;
22164;SDS011;11248;52.512;13.520;2022-10-22T05:41:00;12.30;;;7.93;;
22164;SDS011;11248;52.512;13.520;2022-10-22T05:43:26;11.10;;;7.90;;
22164;SDS011;11248;52.512;13.520;2022-10-22T05:45:52;8.88;;;7.18;;
22164;SDS011;11248;52.512;13.520;2022-10-22T05:48:18;11.30;;;8.07;;
22164;SDS011;11248;52.512;13.520;2022-10-22T05:50:44;9.30;;;7.45;;
22164;SDS011;11248;52.512;13.520;2022-10-22T05:53:14;13.88;;;9.18;;
22164;SDS011;11248;52.512;13.520;2022-10-22T05:55:40;13.13;;;9.13;;
22164;SDS011;11248;52.512;13.520;2022-10-22T05:58:06;13.48;;;9.05;;
22164;SDS011;11248;52.512;13.520;2022-10-22T06:00:32;12.02;;;8.80;;
22164;SDS011;11248;52.512;13.520;2022-10-22T06:02:58;9.45;;;7.70;;
22164;SDS011;11248;52.512;13.520;2022-10-22T06:05:24;11.45;;;8.45;;
22164;SDS011;11248;52.512;13.520;2022-10-22T06:07:50;14.98;;;9.40;;
22164;SDS011;11248;52.512;13.520;2022-10-22T06:10:17;12.18;;;9.32;;
22164;SDS011;11248;52.512;13.520;2022-10-22T06:12:45;13.77;;;10.07;;
22164;SDS011;11248;52.512;13.520;2022-10-22T06:15:11;10.85;;;7.90;;
22164;SDS011;11248;52.512;13.520;2022-10-22T06:17:38;10.43;;;8.55;;
22164;SDS011;11248;52.512;13.520;2022-10-22T06:20:04;11.05;;;8.18;;
22164;SDS011;11248;52.512;13.520;2022-10-22T06:22:30;11.30;;;7.63;;
22164;SDS011;11248;52.512;13.520;2022-10-22T06:24:55;12.07;;;8.63;;
22164;SDS011;11248;52.512;13.520;2022-10-22T06:27:21;12.70;;;8.35;;
22164;SDS011;11248;52.512;13.520;2022-10-22T06:29:47;11.88;;;8.10;;
22164;SDS011;11248;52.512;13.520;2022-10-22T06:32:13;9.13;;;7.35;;
22164;SDS011;11248;52.512;13.520;2022-10-22T06:34:39;12.52;;;8.93;;
22164;SDS011;11248;52.512;13.520;2022-10-22T06:37:05;10.70;;;8.02;;
22164;SDS011;11248;52.512;13.520;2022-10-22T06:39:31;10.48;;;7.70;;
22164;SDS011;11248;52.512;13.520;2022-10-22T06:41:57;10.65;;;7.80;;
22164;SDS011;11248;52.512;13.520;2022-10-22T06:44:23;12.75;;;9.77;;
22164;SDS011;11248;52.512;13.520;2022-10-22T06:46:49;13.65;;;9.60;;
22164;SDS011;11248;52.512;13.520;2022-10-22T06:49:18;12.82;;;8.70;;
22164;SDS011;11248;52.512;13.520;2022-10-22T06:51:48;15.43;;;10.15;;
22164;SDS011;11248;52.512;13.520;2022-10-22T06:54:14;14.25;;;8.73;;
22164;SDS011;11248;52.512;13.520;2022-10-22T06:56:40;16.13;;;9.20;;
22164;SDS011;11248;52.512;13.520;2022-10-22T06:59:06;13.32;;;9.70;;
22164;SDS011;11248;52.512;13.520;2022-10-22T07:01:32;13.90;;;8.50;;
22164;SDS011;11248;52.512;13.520;2022-10-22T07:03:58;12.77;;;8.73;;
22164;SDS011;11248;52.512;13.520;2022-10-22T07:06:25;15.18;;;9.52;;
22164;SDS011;11248;52.512;13.520;2022-10-22T07:08:52;13.10;;;9.05;;
22164;SDS011;11248;52.512;13.520;2022-10-22T07:11:19;11.18;;;8.93;;
22164;SDS011;11248;52.512;13.520;2022-10-22T07:13:45;13.65;;;9.40;;
22164;SDS011;11248;52.512;13.520;2022-10-22T07:16:11;13.00;;;9.07;;
22164;SDS011;11248;52.512;13.520;2022-10-22T07:18:38;12.93;;;9.63;;
22164;SDS011;11248;52.512;13.520;2022-10-22T07:21:04;10.95;;;8.88;;
22164;SDS011;11248;52.512;13.520;2022-10-22T07:23:30;12.63;;;9.43;;
22164;SDS011;11248;52.512;13.520;2022-10-22T07:25:56;12.15;;;8.07;;
22164;SDS011;11248;52.512;13.520;2022-10-22T07:28:22;11.02;;;7.97;;
22164;SDS011;11248;52.512;13.520;2022-10-22T07:30:48;12.50;;;7.47;;
22164;SDS011;11248;52.512;13.520;2022-10-22T07:33:14;11.10;;;7.85;;
22164;SDS011;11248;52.512;13.520;2022-10-22T07:35:40;12.30;;;8.50;;
22164;SDS011;11248;52.512;13.520;2022-10-22T07:38:06;11.50;;;8.32;;
22164;SDS011;11248;52.512;13.520;2022-10-22T07:40:32;9.07;;;7.32;;
22164;SDS011;11248;52.512;13.520;2022-10-22T07:42:58;12.90;;;8.05;;
22164;SDS011;11248;52.512;13.520;2022-10-22T07:45:24;10.52;;;8.23;;
22164;SDS011;11248;52.512;13.520;2022-10-22T07:47:50;13.93;;;9.57;;
22164;SDS011;11248;52.512;13.520;2022-10-22T07:50:16;11.10;;;8.45;;
22164;SDS011;11248;52.512;13.520;2022-10-22T07:52:42;10.65;;;7.72;;
22164;SDS011;11248;52.512;13.520;2022-10-22T07:55:08;9.88;;;8.43;;
22164;SDS011;11248;52.512;13.520;2022-10-22T07:57:34;9.35;;;7.40;;
22164;SDS011;11248;52.512;13.520;2022-10-22T08:00:01;11.30;;;8.77;;
22164;SDS011;11248;52.512;13.520;2022-10-22T08:02:27;11.10;;;8.00;;
22164;SDS011;11248;52.512;13.520;2022-10-22T08:04:52;9.65;;;7.15;;
22164;SDS011;11248;52.512;13.520;2022-10-22T08:07:21;11.52;;;8.63;;
22164;SDS011;11248;52.512;13.520;2022-10-22T08:09:47;11.07;;;8.43;;
22164;SDS011;11248;52.512;13.520;2022-10-22T08:12:12;10.40;;;8.27;;
22164;SDS011;11248;52.512;13.520;2022-10-22T08:14:38;15.57;;;10.90;;
22164;SDS011;11248;52.512;13.520;2022-10-22T08:17:05;12.95;;;9.32;;
22164;SDS011;11248;52.512;13.520;2022-10-22T08:19:31;11.75;;;9.02;;
22164;SDS011;11248;52.512;13.520;2022-10-22T08:21:57;14.30;;;8.98;;
22164;SDS011;11248;52.512;13.520;2022-10-22T08:24:23;10.68;;;7.75;;
22164;SDS011;11248;52.512;13.520;2022-10-22T08:26:51;10.43;;;8.20;;
22164;SDS011;11248;52.512;13.520;2022-10-22T08:29:18;10.52;;;9.43;;
22164;SDS011;11248;52.512;13.520;2022-10-22T08:31:45;10.40;;;9.02;;
22164;SDS011;11248;52.512;13.520;2022-10-22T08:34:11;9.20;;;8.30;;
22164;SDS011;11248;52.512;13.520;2022-10-22T08:36:37;9.25;;;7.88;;
22164;SDS011;11248;52.512;13.520;2022-10-22T08:39:03;12.73;;;8.70;;
22164;SDS011;11248;52.512;13.520;2022-10-22T08:41:29;10.38;;;7.72;;
22164;SDS011;11248;52.512;13.520;2022-10-22T08:44:11;11.20;;;7.68;;
22164;SDS011;11248;52.512;13.520;2022-10-22T08:49:08;12.30;;;9.18;;
22164;SDS011;11248;52.512;13.520;2022-10-22T08:51:37;13.02;;;8.48;;
22164;SDS011;11248;52.512;13.520;2022-10-22T08:54:05;13.73;;;9.07;;
22164;SDS011;11248;52.512;13.520;2022-10-22T08:56:36;11.43;;;8.38;;
22164;SDS011;11248;52.512;13.520;2022-10-22T08:59:05;12.75;;;8.98;;
22164;SDS011;11248;52.512;13.520;2022-10-22T09:01:46;13.07;;;9.23;;
22164;SDS011;11248;52.512;13.520;2022-10-22T09:04:21;11.27;;;8.88;;
22164;SDS011;11248;52.512;13.520;2022-10-22T09:06:49;11.35;;;8.25;;
22164;SDS011;11248;52.512;13.520;2022-10-22T09:09:16;13.30;;;9.30;;
22164;SDS011;11248;52.512;13.520;2022-10-22T09:11:44;11.93;;;7.60;;
22164;SDS011;11248;52.512;13.520;2022-10-22T09:14:12;11.50;;;8.05;;
22164;SDS011;11248;52.512;13.520;2022-10-22T09:16:54;11.38;;;8.63;;
22164;SDS011;11248;52.512;13.520;2022-10-22T09:19:34;10.38;;;7.45;;
22164;SDS011;11248;52.512;13.520;2022-10-22T09:24:45;8.90;;;7.00;;
22164;SDS011;11248;52.512;13.520;2022-10-22T09:27:45;8.18;;;6.93;;
22164;SDS011;11248;52.512;13.520;2022-10-22T09:30:04;8.30;;;6.90;;
22164;SDS011;11248;52.512;13.520;2022-10-22T09:32:30;14.25;;;9.50;;
22164;SDS011;11248;52.512;13.520;2022-10-22T09:34:57;8.82;;;7.07;;
22164;SDS011;11248;52.512;13.520;2022-10-22T09:37:27;8.93;;;6.38;;
22164;SDS011;11248;52.512;13.520;2022-10-22T09:39:54;12.45;;;8.18;;
22164;SDS011;11248;52.512;13.520;2022-10-22T09:42:20;13.85;;;9.07;;
22164;SDS011;11248;52.512;13.520;2022-10-22T09:44:53;11.13;;;7.72;;
22164;SDS011;11248;52.512;13.520;2022-10-22T09:47:27;12.52;;;8.50;;
22164;SDS011;11248;52.512;13.520;2022-10-22T09:55:38;7.65;;;5.78;;
22164;SDS011;11248;52.512;13.520;2022-10-22T09:57:58;8.93;;;7.10;;
22164;SDS011;11248;52.512;13.520;2022-10-22T10:00:25;10.27;;;7.65;;
22164;SDS011;11248;52.512;13.520;2022-10-22T10:02:58;8.80;;;6.82;;
22164;SDS011;11248;52.512;13.520;2022-10-22T10:05:25;8.73;;;7.38;;
22164;SDS011;11248;52.512;13.520;2022-10-22T10:07:51;10.30;;;7.70;;
22164;SDS011;11248;52.512;13.520;2022-10-22T10:10:38;12.43;;;8.20;;
22164;SDS011;11248;52.512;13.520;2022-10-22T10:18:16;13.43;;;7.60;;
22164;SDS011;11248;52.512;13.520;2022-10-22T10:23:17;10.50;;;7.43;;
22164;SDS011;11248;52.512;13.520;2022-10-22T10:28:53;13.85;;;8.27;;
22164;SDS011;11248;52.512;13.520;2022-10-22T10:39:23;11.60;;;6.90;;
22164;SDS011;11248;52.512;13.520;2022-10-22T10:42:13;10.27;;;7.43;;
22164;SDS011;11248;52.512;13.520;2022-10-22T10:44:54;10.68;;;7.88;;
22164;SDS011;11248;52.512;13.520;2022-10-22T10:47:32;9.68;;;6.90;;
22164;SDS011;11248;52.512;13.520;2022-10-22T10:50:13;11.43;;;8.05;;
22164;SDS011;11248;52.512;13.520;2022-10-22T10:52:44;12.23;;;7.18;;
22164;SDS011;11248;52.512;13.520;2022-10-22T10:58:02;10.82;;;7.57;;
22164;SDS011;11248;52.512;13.520;2022-10-22T11:00:32;10.15;;;6.90;;
22164;SDS011;11248;52.512;13.520;2022-10-22T11:05:30;10.35;;;8.02;;
22164;SDS011;11248;52.512;13.520;2022-10-22T11:08:00;9.05;;;6.80;;
22164;SDS011;11248;52.512;13.520;2022-10-22T11:10:32;10.43;;;7.50;;
22164;SDS011;11248;52.512;13.520;2022-10-22T11:13:01;10.45;;;7.93;;
22164;SDS011;11248;52.512;13.520;2022-10-22T11:15:36;12.05;;;7.57;;
22164;SDS011;11248;52.512;13.520;2022-10-22T11:18:10;11.15;;;7.30;;
22164;SDS011;11248;52.512;13.520;2022-10-22T11:23:17;10.65;;;7.97;;
22164;SDS011;11248;52.512;13.520;2022-10-22T11:25:48;13.15;;;8.75;;
22164;SDS011;11248;52.512;13.520;2022-10-22T11:28:17;10.35;;;7.63;;
22164;SDS011;11248;52.512;13.520;2022-10-22T11:30:44;9.77;;;7.20;;
22164;SDS011;11248;52.512;13.520;2022-10-22T11:33:14;12.85;;;9.50;;
22164;SDS011;11248;52.512;13.520;2022-10-22T11:35:41;10.48;;;7.60;;
22164;SDS011;11248;52.512;13.520;2022-10-22T11:38:09;10.45;;;8.23;;
22164;SDS011;11248;52.512;13.520;2022-10-22T11:40:37;12.80;;;9.00;;
22164;SDS011;11248;52.512;13.520;2022-10-22T11:43:04;17.00;;;11.40;;
22164;SDS011;11248;52.512;13.520;2022-10-22T11:45:38;15.80;;;9.70;;
22164;SDS011;11248;52.512;13.520;2022-10-22T11:50:50;11.75;;;7.57;;
22164;SDS011;11248;52.512;13.520;2022-10-22T11:53:25;10.35;;;7.97;;
22164;SDS011;11248;52.512;13.520;2022-10-22T11:56:02;12.40;;;7.82;;
22164;SDS011;11248;52.512;13.520;2022-10-22T11:58:42;10.80;;;7.35;;
22164;SDS011;11248;52.512;13.520;2022-10-22T12:03:47;10.05;;;7.05;;
22164;SDS011;11248;52.512;13.520;2022-10-22T12:11:16;10.13;;;7.15;;
22164;SDS011;11248;52.512;13.520;2022-10-22T12:16:13;9.70;;;5.78;;
22164;SDS011;11248;52.512;13.520;2022-10-22T12:18:39;6.10;;;4.82;;
22164;SDS011;11248;52.512;13.520;2022-10-22T12:21:08;11.25;;;6.22;;
22164;SDS011;11248;52.512;13.520;2022-10-22T12:23:35;6.97;;;5.07;;
22164;SDS011;11248;52.512;13.520;2022-10-22T12:26:02;5.65;;;4.45;;
22164;SDS011;11248;52.512;13.520;2022-10-22T12:28:29;5.75;;;4.57;;
22164;SDS011;11248;52.512;13.520;2022-10-22T12:31:01;9.07;;;6.00;;
22164;SDS011;11248;52.512;13.520;2022-10-22T12:33:28;6.55;;;4.80;;
22164;SDS011;11248;52.512;13.520;2022-10-22T12:35:56;6.38;;;4.43;;
22164;SDS011;11248;52.512;13.520;2022-10-22T12:38:24;8.30;;;4.88;;
22164;SDS011;11248;52.512;13.520;2022-10-22T12:40:50;6.22;;;5.03;;
22164;SDS011;11248;52.512;13.520;2022-10-22T12:43:22;7.88;;;5.90;;
22164;SDS011;11248;52.512;13.520;2022-10-22T12:45:48;7.45;;;4.80;;
22164;SDS011;11248;52.512;13.520;2022-10-22T12:50:46;6.00;;;3.88;;
22164;SDS011;11248;52.512;13.520;2022-10-22T12:53:14;7.47;;;4.18;;
22164;SDS011;11248;52.512;13.520;2022-10-22T12:55:40;7.38;;;4.82;;
22164;SDS011;11248;52.512;13.520;2022-10-22T12:58:06;4.43;;;3.42;;
22164;SDS011;11248;52.512;13.520;2022-10-22T13:00:33;4.03;;;2.97;;
22164;SDS011;11248;52.512;13.520;2022-10-22T13:03:02;4.72;;;3.40;;
22164;SDS011;11248;52.512;13.520;2022-10-22T13:05:32;4.40;;;3.22;;
22164;SDS011;11248;52.512;13.520;2022-10-22T13:08:08;4.82;;;3.20;;
22164;SDS011;11248;52.512;13.520;2022-10-22T13:10:36;3.97;;;2.38;;
22164;SDS011;11248;52.512;13.520;2022-10-22T13:13:02;5.85;;;2.78;;
22164;SDS011;11248;52.512;13.520;2022-10-22T13:18:19;3.05;;;2.30;;
22164;SDS011;11248;52.512;13.520;2022-10-22T13:20:49;9.18;;;3.00;;
22164;SDS011;11248;52.512;13.520;2022-10-22T13:23:19;5.65;;;2.65;;
22164;SDS011;11248;52.512;13.520;2022-10-22T13:25:55;2.80;;;2.03;;
22164;SDS011;11248;52.512;13.520;2022-10-22T13:28:21;2.78;;;2.03;;
22164;SDS011;11248;52.512;13.520;2022-10-22T13:30:53;4.95;;;2.05;;
22164;SDS011;11248;52.512;13.520;2022-10-22T13:33:32;4.13;;;2.40;;
22164;SDS011;11248;52.512;13.520;2022-10-22T13:35:59;3.60;;;2.15;;
22164;SDS011;11248;52.512;13.520;2022-10-22T13:38:25;4.97;;;1.90;;
22164;SDS011;11248;52.512;13.520;2022-10-22T13:40:51;3.42;;;2.05;;
22164;SDS011;11248;52.512;13.520;2022-10-22T13:43:17;7.65;;;2.38;;
22164;SDS011;11248;52.512;13.520;2022-10-22T13:45:44;6.60;;;2.15;;
22164;SDS011;11248;52.512;13.520;2022-10-22T13:48:17;2.25;;;1.50;;
22164;SDS011;11248;52.512;13.520;2022-10-22T13:50:46;3.22;;;1.85;;
22164;SDS011;11248;52.512;13.520;2022-10-22T13:53:19;6.40;;;2.28;;
22164;SDS011;11248;52.512;13.520;2022-10-22T13:55:45;4.78;;;2.05;;
22164;SDS011;11248;52.512;13.520;2022-10-22T13:58:12;3.83;;;1.90;;
22164;SDS011;11248;52.512;13.520;2022-10-22T14:00:40;2.90;;;1.77;;
22164;SDS011;11248;52.512;13.520;2022-10-22T14:03:07;3.55;;;1.50;;
22164;SDS011;11248;52.512;13.520;2022-10-22T14:05:34;5.07;;;1.90;;
22164;SDS011;11248;52.512;13.520;2022-10-22T14:08:00;3.30;;;1.98;;
22164;SDS011;11248;52.512;13.520;2022-10-22T14:10:26;2.90;;;1.45;;
22164;SDS011;11248;52.512;13.520;2022-10-22T14:12:52;4.40;;;1.80;;
22164;SDS011;11248;52.512;13.520;2022-10-22T14:15:19;5.07;;;2.00;;
22164;SDS011;11248;52.512;13.520;2022-10-22T14:17:46;5.40;;;1.90;;
22164;SDS011;11248;52.512;13.520;2022-10-22T14:20:20;4.95;;;2.28;;
22164;SDS011;11248;52.512;13.520;2022-10-22T14:22:47;5.30;;;2.00;;
22164;SDS011;11248;52.512;13.520;2022-10-22T14:25:14;5.80;;;2.00;;
22164;SDS011;11248;52.512;13.520;2022-10-22T14:27:40;4.97;;;1.55;;
22164;SDS011;11248;52.512;13.520;2022-10-22T14:30:07;4.72;;;1.50;;
22164;SDS011;11248;52.512;13.520;2022-10-22T14:32:33;4.65;;;1.80;;
22164;SDS011;11248;52.512;13.520;2022-10-22T14:34:59;3.42;;;1.60;;
22164;SDS011;11248;52.512;13.520;2022-10-22T14:37:25;5.70;;;1.70;;
22164;SDS011;11248;52.512;13.520;2022-10-22T14:39:51;4.70;;;2.17;;
22164;SDS011;11248;52.512;13.520;2022-10-22T14:42:24;2.92;;;1.95;;
22164;SDS011;11248;52.512;13.520;2022-10-22T14:44:50;6.82;;;2.35;;
22164;SDS011;11248;52.512;13.520;2022-10-22T14:47:15;4.72;;;1.75;;
22164;SDS011;11248;52.512;13.520;2022-10-22T14:49:41;7.22;;;2.55;;
22164;SDS011;11248;52.512;13.520;2022-10-22T14:52:07;5.13;;;1.92;;
22164;SDS011;11248;52.512;13.520;2022-10-22T14:54:33;7.57;;;2.75;;
22164;SDS011;11248;52.512;13.520;2022-10-22T14:57:00;4.50;;;1.88;;
22164;SDS011;11248;52.512;13.520;2022-10-22T14:59:26;4.82;;;2.03;;
22164;SDS011;11248;52.512;13.520;2022-10-22T15:01:52;5.55;;;2.20;;
22164;SDS011;11248;52.512;13.520;2022-10-22T15:04:18;2.70;;;1.80;;
22164;SDS011;11248;52.512;13.520;2022-10-22T15:06:44;4.35;;;1.80;;
22164;SDS011;11248;52.512;13.520;2022-10-22T15:09:10;5.18;;;2.20;;
22164;SDS011;11248;52.512;13.520;2022-10-22T15:11:36;3.55;;;1.90;;
22164;SDS011;11248;52.512;13.520;2022-10-22T15:14:02;8.32;;;2.10;;
22164;SDS011;11248;52.512;13.520;2022-10-22T15:16:28;6.32;;;2.20;;
22164;SDS011;11248;52.512;13.520;2022-10-22T15:18:54;4.10;;;2.08;;
22164;SDS011;11248;52.512;13.520;2022-10-22T15:21:21;3.83;;;2.13;;
22164;SDS011;11248;52.512;13.520;2022-10-22T15:23:47;5.63;;;2.00;;
22164;SDS011;11248;52.512;13.520;2022-10-22T15:26:14;3.30;;;1.85;;
22164;SDS011;11248;52.512;13.520;2022-10-22T15:28:40;4.55;;;1.98;;
22164;SDS011;11248;52.512;13.520;2022-10-22T15:31:06;5.18;;;2.08;;
22164;SDS011;11248;52.512;13.520;2022-10-22T15:33:32;4.13;;;1.90;;
22164;SDS011;11248;52.512;13.520;2022-10-22T15:36:07;5.88;;;2.17;;
22164;SDS011;11248;52.512;13.520;2022-10-22T15:38:33;2.78;;;1.95;;
22164;SDS011;11248;52.512;13.520;2022-10-22T15:41:05;4.13;;;1.90;;
22164;SDS011;11248;52.512;13.520;2022-10-22T15:43:32;7.43;;;2.92;;
22164;SDS011;11248;52.512;13.520;2022-10-22T15:46:07;4.32;;;2.20;;
22164;SDS011;11248;52.512;13.520;2022-10-22T15:48:33;4.15;;;2.45;;
22164;SDS011;11248;52.512;13.520;2022-10-22T15:50:59;5.00;;;2.80;;